createdAt,value
2023-05-18T00:00:36.600Z,20.00
2023-05-18T00:05:58.217Z,20.40
2023-05-18T00:11:06.930Z,18.60
2023-05-18T00:16:12.679Z,21.30
2023-05-18T00:21:16.706Z,16.70
2023-05-18T00:26:21.298Z,19.50
2023-05-18T00:31:27.139Z,23.40
2023-05-18T00:36:32.124Z,18.40
2023-05-18T00:41:36.880Z,21.80
2023-05-18T00:46:41.949Z,17.00
2023-05-18T00:51:46.410Z,20.40
2023-05-18T00:56:54.340Z,15.40
2023-05-18T01:02:05.242Z,15.90
2023-05-18T01:07:12.017Z,23.60
2023-05-18T01:12:24.697Z,17.30
2023-05-18T01:17:47.961Z,18.00
2023-05-18T01:23:24.108Z,14.40
2023-05-18T01:28:32.720Z,13.50
2023-05-18T01:33:36.847Z,17.00
2023-05-18T01:38:43.948Z,18.10
2023-05-18T01:44:34.216Z,12.70
2023-05-18T01:50:02.668Z,13.60
2023-05-18T01:55:07.801Z,12.80
2023-05-18T02:00:13.025Z,12.60
2023-05-18T02:05:23.827Z,12.00
2023-05-18T02:10:27.529Z,18.00
2023-05-18T02:15:31.722Z,12.50
2023-05-18T02:20:38.936Z,14.10
2023-05-18T02:25:44.856Z,16.20
2023-05-18T02:30:51.040Z,13.80
2023-05-18T02:35:54.863Z,20.30
2023-05-18T02:40:59.246Z,12.10
2023-05-18T02:46:06.205Z,13.70
2023-05-18T02:51:11.026Z,14.10
2023-05-18T02:56:15.233Z,15.00
2023-05-18T03:01:45.285Z,14.40
2023-05-18T03:06:53.437Z,14.90
2023-05-18T03:11:58.278Z,12.40
2023-05-18T03:17:06.284Z,15.20
2023-05-18T03:22:11.556Z,12.80
2023-05-18T03:27:16.921Z,11.00
2023-05-18T03:32:23.451Z,13.40
2023-05-18T03:37:27.732Z,11.80
2023-05-18T03:42:32.198Z,13.40
2023-05-18T03:47:40.222Z,9.30
2023-05-18T03:52:45.003Z,15.80
2023-05-18T03:57:49.846Z,15.10
2023-05-18T04:02:54.624Z,15.00
2023-05-18T04:08:01.311Z,13.40
2023-05-18T04:13:05.113Z,9.90
2023-05-18T04:18:10.897Z,15.80
2023-05-18T04:23:14.632Z,13.90
2023-05-18T04:28:19.662Z,12.30
2023-05-18T04:33:25.249Z,11.30
2023-05-18T04:38:35.197Z,11.70
2023-05-18T04:43:43.207Z,18.40
2023-05-18T04:48:53.275Z,8.20
2023-05-18T04:53:57.160Z,12.00
2023-05-18T04:59:02.804Z,13.90
2023-05-18T05:04:07.365Z,13.50
2023-05-18T05:09:14.324Z,10.20
2023-05-18T05:14:20.380Z,15.10
2023-05-18T05:19:24.315Z,10.50
2023-05-18T05:24:28.002Z,13.70
2023-05-18T05:29:31.796Z,17.40
2023-05-18T05:34:37.994Z,10.30
2023-05-18T05:39:42.515Z,16.70
2023-05-18T05:44:47.271Z,14.00
2023-05-18T05:49:51.368Z,17.80
2023-05-18T05:54:56.440Z,11.00
2023-05-18T06:00:00.741Z,12.70
2023-05-18T06:05:06.358Z,13.60
2023-05-18T06:10:10.297Z,10.00
2023-05-18T06:15:15.158Z,10.10
2023-05-18T06:20:18.861Z,11.90
2023-05-18T06:25:25.774Z,9.10
2023-05-18T06:30:44.635Z,7.40
2023-05-18T06:36:13.096Z,15.40
2023-05-18T06:41:17.276Z,11.70
2023-05-18T06:46:24.706Z,10.40
2023-05-18T06:51:32.701Z,6.70
2023-05-18T06:56:39.277Z,7.10
2023-05-18T07:01:43.079Z,8.40
2023-05-18T07:06:50.189Z,7.60
2023-05-18T07:11:53.938Z,11.90
2023-05-18T07:16:57.666Z,6.70
2023-05-18T07:22:01.525Z,7.60
2023-05-18T07:27:06.261Z,10.30
2023-05-18T07:32:09.985Z,7.50
2023-05-18T07:37:14.255Z,10.20
2023-05-18T07:42:18.094Z,9.00
2023-05-18T07:47:21.945Z,8.90
2023-05-18T07:52:26.145Z,14.50
2023-05-18T07:57:31.446Z,7.50
2023-05-18T08:02:35.149Z,6.40
2023-05-18T08:07:38.888Z,8.30
2023-05-18T08:12:43.415Z,7.20
2023-05-18T08:17:47.761Z,8.70
2023-05-18T08:22:51.691Z,6.00
2023-05-18T08:27:55.302Z,6.00
2023-05-18T08:32:59.338Z,6.50
2023-05-18T08:38:05.394Z,7.20
2023-05-18T08:43:19.653Z,6.50
2023-05-18T08:48:27.220Z,12.40
2023-05-18T08:53:34.027Z,8.10
2023-05-18T08:58:45.012Z,9.00
2023-05-18T09:03:51.578Z,6.90
2023-05-18T09:09:04.589Z,12.20
2023-05-18T09:14:08.581Z,7.70
2023-05-18T09:19:12.342Z,3.70
2023-05-18T09:24:16.632Z,6.40
2023-05-18T09:29:22.113Z,6.20
2023-05-18T09:34:25.828Z,7.30
2023-05-18T09:39:29.534Z,3.70
2023-05-18T09:44:36.406Z,5.70
2023-05-18T09:49:41.144Z,4.40
2023-05-18T09:54:44.861Z,4.80
2023-05-18T09:59:59.177Z,6.50
2023-05-18T10:05:03.126Z,4.60
2023-05-18T10:10:09.098Z,4.30
2023-05-18T10:15:18.057Z,8.00
2023-05-18T10:20:24.872Z,3.80
2023-05-18T10:25:29.818Z,5.00
2023-05-18T10:30:34.764Z,3.50
2023-05-18T10:35:39.569Z,4.00
2023-05-18T10:40:44.454Z,3.20
2023-05-18T10:45:53.052Z,3.20
2023-05-18T10:50:58.350Z,4.10
2023-05-18T10:56:03.808Z,3.90
2023-05-18T11:01:10.180Z,2.30
2023-05-18T11:06:15.367Z,4.10
2023-05-18T11:11:24.761Z,2.60
2023-05-18T11:16:36.204Z,4.50
2023-05-18T11:21:42.081Z,3.90
2023-05-18T11:26:50.183Z,3.30
2023-05-18T11:31:56.129Z,5.10
2023-05-18T11:37:01.765Z,6.20
2023-05-18T11:42:14.871Z,9.00
2023-05-18T11:47:19.175Z,2.90
2023-05-18T11:52:24.441Z,4.60
2023-05-18T11:57:34.428Z,5.90
2023-05-18T12:02:46.627Z,3.40
2023-05-18T12:07:56.840Z,6.70
2023-05-18T12:13:01.528Z,2.70
2023-05-18T12:18:11.469Z,3.00
2023-05-18T12:23:15.742Z,2.80
2023-05-18T12:28:19.473Z,3.50
2023-05-18T12:33:23.237Z,2.10
2023-05-18T12:38:29.695Z,3.40
2023-05-18T12:43:39.494Z,2.10
2023-05-18T12:48:49.503Z,3.60
2023-05-18T12:53:53.174Z,3.50
2023-05-18T12:59:03.362Z,2.90
2023-05-18T13:04:12.130Z,2.10
2023-05-18T13:09:17.236Z,3.10
2023-05-18T13:14:31.207Z,2.60
2023-05-18T13:19:37.861Z,3.70
2023-05-18T13:24:43.204Z,3.10
2023-05-18T13:29:47.169Z,3.20
2023-05-18T13:34:52.786Z,4.40
2023-05-18T13:40:03.166Z,5.10
2023-05-18T13:45:08.388Z,1.90
2023-05-18T13:50:12.889Z,5.50
2023-05-18T13:55:16.766Z,4.40
2023-05-18T14:00:21.123Z,2.90
2023-05-18T14:05:25.508Z,3.80
2023-05-18T14:10:29.792Z,3.60
2023-05-18T14:15:33.623Z,3.20
2023-05-18T14:20:38.290Z,3.70
2023-05-18T14:25:43.980Z,3.10
2023-05-18T14:30:47.720Z,2.50
2023-05-18T14:35:51.615Z,2.80
2023-05-18T14:40:55.359Z,3.80
2023-05-18T14:46:08.100Z,6.60
2023-05-18T14:51:13.819Z,2.80
2023-05-18T14:56:17.624Z,3.80
2023-05-18T15:01:21.638Z,4.00
2023-05-18T15:06:26.625Z,2.80
2023-05-18T15:11:30.322Z,2.90
2023-05-18T15:16:34.328Z,3.30
2023-05-18T15:21:40.493Z,2.70
2023-05-18T15:26:45.003Z,3.30
2023-05-18T15:31:53.074Z,2.30
2023-05-18T15:36:57.121Z,2.10
2023-05-18T15:42:05.290Z,3.20
2023-05-18T15:47:09.093Z,3.50
2023-05-18T15:52:12.880Z,4.60
2023-05-18T15:57:16.622Z,3.80
2023-05-18T16:02:20.367Z,4.60
2023-05-18T16:07:24.799Z,3.30
2023-05-18T16:12:28.393Z,2.70
2023-05-18T16:17:32.611Z,5.10
2023-05-18T16:22:36.244Z,3.90
2023-05-18T16:27:39.874Z,3.60
2023-05-18T16:32:44.770Z,4.10
2023-05-18T16:37:48.407Z,2.80
2023-05-18T16:42:52.167Z,7.50
2023-05-18T16:47:56.046Z,5.60
2023-05-18T16:52:59.765Z,7.80
2023-05-18T16:58:04.396Z,7.70
2023-05-18T17:03:11.341Z,12.60
2023-05-18T17:08:15.414Z,4.00
2023-05-18T17:13:19.140Z,3.60
2023-05-18T17:18:22.818Z,5.40
2023-05-18T17:23:26.499Z,5.70
2023-05-18T17:28:30.340Z,4.70
2023-05-18T17:33:34.245Z,4.80
2023-05-18T17:38:38.484Z,4.10
2023-05-18T17:43:42.442Z,2.50
2023-05-18T17:48:49.320Z,5.60
2023-05-18T17:53:53.251Z,2.70
2023-05-18T17:58:59.022Z,3.50
2023-05-18T18:04:03.037Z,3.90
2023-05-18T18:09:07.241Z,2.90
2023-05-18T18:14:15.798Z,2.30
2023-05-18T18:19:20.495Z,2.60
2023-05-18T18:24:24.805Z,3.50
2023-05-18T18:29:30.949Z,5.40
2023-05-18T18:34:41.335Z,4.40
2023-05-18T18:39:45.147Z,2.90
2023-05-18T18:44:49.777Z,4.50
2023-05-18T18:49:53.729Z,4.70
2023-05-18T18:54:58.782Z,5.20
2023-05-18T19:00:02.676Z,3.20
2023-05-18T19:05:11.413Z,5.40
2023-05-18T19:10:15.917Z,4.50
2023-05-18T19:15:22.707Z,4.10
2023-05-18T19:20:27.105Z,3.90
2023-05-18T19:25:32.303Z,3.70
2023-05-18T19:30:36.946Z,4.50
2023-05-18T19:35:40.958Z,4.80
2023-05-18T19:40:44.771Z,7.20
2023-05-18T19:45:50.473Z,6.00
2023-05-18T19:50:54.803Z,5.50
2023-05-18T19:56:00.068Z,6.60
2023-05-18T20:01:04.753Z,7.90
2023-05-18T20:06:08.592Z,4.80
2023-05-18T20:11:12.621Z,5.20
2023-05-18T20:16:20.688Z,10.00
2023-05-18T20:21:25.769Z,4.60
2023-05-18T20:26:31.946Z,6.00
2023-05-18T20:31:37.613Z,8.20
2023-05-18T20:36:41.580Z,6.80
2023-05-18T20:41:45.222Z,4.80
2023-05-18T20:46:53.365Z,5.00
2023-05-18T20:51:57.218Z,5.20
2023-05-18T20:57:01.184Z,6.30
2023-05-18T21:02:05.262Z,5.60
2023-05-18T21:07:10.285Z,5.90
2023-05-18T21:12:14.154Z,5.90
2023-05-18T21:17:18.550Z,7.20
2023-05-18T21:22:22.537Z,7.90
2023-05-18T21:27:27.265Z,9.90
2023-05-18T21:32:31.572Z,13.80
2023-05-18T21:37:35.487Z,12.80
2023-05-18T21:42:45.375Z,9.90
2023-05-18T21:47:51.073Z,8.10
2023-05-18T21:52:55.535Z,13.70
2023-05-18T21:57:59.904Z,10.60
2023-05-18T22:03:05.557Z,8.70
2023-05-18T22:08:09.879Z,10.30
2023-05-18T22:13:13.559Z,8.20
2023-05-18T22:18:19.606Z,9.10
2023-05-18T22:23:23.779Z,9.00
2023-05-18T22:28:28.585Z,8.30
2023-05-18T22:33:32.315Z,12.80
2023-05-18T22:38:36.198Z,10.20
2023-05-18T22:43:40.754Z,9.70
2023-05-18T22:48:45.965Z,10.70
2023-05-18T22:53:49.687Z,11.00
2023-05-18T22:58:53.845Z,11.50
2023-05-18T23:03:59.540Z,10.20
2023-05-18T23:09:04.319Z,9.50
2023-05-18T23:14:08.878Z,12.00
2023-05-18T23:19:15.226Z,10.90
2023-05-18T23:24:19.326Z,10.50
2023-05-18T23:29:22.956Z,11.40
2023-05-18T23:34:27.830Z,11.80
2023-05-18T23:39:33.046Z,10.70
2023-05-18T23:44:37.547Z,9.00
2023-05-18T23:49:41.489Z,9.20
2023-05-18T23:54:50.701Z,8.50
2023-05-18T23:59:55.803Z,10.90
